Time;durP1;ratioP1;P1;durP2;ratioP2;P2;SDS_P1;SDS_P2;PMS_P1;PMS_P2;Temp;Humidity;BMP_temperature;BMP_pressure;BME280_temperature;BME280_humidity;BME280_pressure;Samples;Min_cycle;Max_cycle;Signal;HPM_P1;HPM_P2
2022/01/02 00:00:04;;;;;;;6.87;6.20;;;;;;;8.95;100.00;100946.94;5091450;28;20622;-74
2022/01/02 00:02:32;;;;;;;5.63;5.13;;;;;;;8.94;100.00;100940.66;5089577;28;20205;-74
2022/01/02 00:05:24;;;;;;;6.73;6.03;;;;;;;9.01;100.00;100955.88;5091101;28;20185;-74
2022/01/02 00:07:58;;;;;;;8.83;5.67;;;;;;;9.17;100.00;100960.06;5089248;28;20182;-74
2022/01/02 00:10:24;;;;;;;6.17;5.57;;;;;;;8.89;100.00;100937.19;5091284;28;20170;-73
2022/01/02 00:12:56;;;;;;;5.93;5.37;;;;;;;9.00;100.00;100932.47;5091172;28;20177;-74
2022/01/02 00:15:22;;;;;;;6.47;4.73;;;;;;;9.05;100.00;100919.56;5091038;28;20177;-74
2022/01/02 00:17:54;;;;;;;5.93;4.70;;;;;;;8.94;100.00;100912.59;5091117;28;20231;-74
2022/01/02 00:20:32;;;;;;;7.30;4.57;;;;;;;8.90;100.00;100906.13;5091196;28;20170;-74
2022/01/02 00:23:05;;;;;;;5.63;5.13;;;;;;;8.91;100.00;100892.19;5053214;28;1095793;-74
2022/01/02 00:25:35;;;;;;;4.80;4.30;;;;;;;8.98;100.00;100864.63;5091783;28;20483;-74
2022/01/02 00:28:00;;;;;;;4.83;3.90;;;;;;;9.19;100.00;100893.25;5091838;28;20166;-74
2022/01/02 00:30:26;;;;;;;6.17;4.70;;;;;;;9.34;100.00;100878.63;5091899;28;20189;-74
2022/01/02 00:32:51;;;;;;;4.00;3.60;;;;;;;9.42;100.00;100877.97;5091959;28;20184;-73
2022/01/02 00:35:17;;;;;;;3.17;2.67;;;;;;;9.75;100.00;100886.25;5090189;28;20174;-73
2022/01/02 00:37:42;;;;;;;1.57;1.47;;;;;;;9.93;100.00;100881.88;5090530;28;20174;-73
2022/01/02 00:40:08;;;;;;;1.13;1.03;;;;;;;10.08;100.00;100893.38;5091705;28;20174;-73
2022/01/02 00:42:39;;;;;;;3.27;2.97;;;;;;;10.11;100.00;100891.97;5091007;28;20300;-73
2022/01/02 00:45:16;;;;;;;0.80;0.80;;;;;;;10.08;100.00;100877.00;5091484;28;20223;-74
2022/01/02 00:48:06;;;;;;;4.47;3.00;;;;;;;10.10;100.00;100873.97;5091664;28;20166;-73
2022/01/02 00:50:56;;;;;;;1.40;1.17;;;;;;;10.13;100.00;100892.50;5091512;28;20653;-73
2022/01/02 00:53:25;;;;;;;1.50;1.13;;;;;;;10.13;100.00;100897.97;5091810;28;20170;-73
2022/01/02 00:55:56;;;;;;;1.70;1.60;;;;;;;10.13;100.00;100878.84;5091161;28;20196;-73
2022/01/02 00:58:33;;;;;;;2.33;1.80;;;;;;;10.19;100.00;100895.97;5091210;28;20170;-73
2022/01/02 01:01:03;;;;;;;1.53;1.43;;;;;;;10.22;100.00;100898.94;5091352;28;20525;-74
2022/01/02 01:03:33;;;;;;;5.57;2.20;;;;;;;10.22;100.00;100890.72;5090057;28;20182;-73
2022/01/02 01:06:03;;;;;;;1.80;1.70;;;;;;;10.27;100.00;100901.59;5091173;28;20178;-73
2022/01/02 01:08:32;;;;;;;3.20;2.43;;;;;;;10.23;100.00;100886.91;5091206;28;20248;-74
2022/01/02 01:10:59;;;;;;;2.37;2.17;;;;;;;10.25;100.00;100876.47;5091063;28;20668;-73
2022/01/02 01:13:25;;;;;;;2.00;1.90;;;;;;;10.30;100.00;100875.59;5091246;28;20185;-73
2022/01/02 01:15:51;;;;;;;2.80;2.43;;;;;;;10.36;100.00;100874.41;5089496;28;20178;-74
2022/01/02 01:18:16;;;;;;;2.53;2.17;;;;;;;10.33;100.00;100884.00;5091029;28;20184;-73
2022/01/02 01:20:44;;;;;;;1.03;0.93;;;;;;;10.33;100.00;100880.47;5091381;28;20171;-73
2022/01/02 01:23:18;;;;;;;0.60;0.60;;;;;;;10.38;100.00;100872.16;5090808;28;20209;-74
2022/01/02 01:25:46;;;;;;;0.43;0.43;;;;;;;10.37;100.00;100876.00;5091061;28;20202;-73
2022/01/02 01:28:13;;;;;;;3.50;2.63;;;;;;;10.38;100.00;100875.72;5090861;28;20170;-73
2022/01/02 01:30:39;;;;;;;2.70;2.40;;;;;;;10.37;100.00;100867.81;5090873;28;20181;-74
2022/01/02 01:33:04;;;;;;;3.43;2.30;;;;;;;10.34;100.00;100869.22;5090744;28;20177;-73
2022/01/02 01:35:30;;;;;;;1.13;0.83;;;;;;;10.35;100.00;100867.31;5090522;28;20174;-73
2022/01/02 01:37:55;;;;;;;1.33;1.00;;;;;;;10.37;100.00;100854.16;5090790;28;20636;-73
2022/01/02 01:40:21;;;;;;;1.40;1.30;;;;;;;10.39;100.00;100847.28;5090481;28;20185;-73
2022/01/02 01:43:00;;;;;;;2.50;1.43;;;;;;;10.41;100.00;100847.81;5090815;28;20550;-73
2022/01/02 01:45:29;;;;;;;2.87;1.37;;;;;;;10.44;100.00;100849.13;5090670;28;20204;-73
2022/01/02 01:48:01;;;;;;;1.43;1.33;;;;;;;10.46;100.00;100849.66;5090584;28;20177;-73
2022/01/02 01:50:31;;;;;;;2.53;2.00;;;;;;;10.47;100.00;100851.25;5090468;28;20653;-74
2022/01/02 01:52:56;;;;;;;2.80;1.93;;;;;;;10.49;100.00;100846.31;5089164;28;20293;-73
2022/01/02 01:55:22;;;;;;;2.67;1.77;;;;;;;10.50;100.00;100837.00;5090467;28;20669;-74
2022/01/02 01:57:51;;;;;;;3.27;1.73;;;;;;;10.53;100.00;100821.91;5090482;28;20181;-73
2022/01/02 02:00:19;;;;;;;3.23;2.20;;;;;;;10.55;100.00;100825.97;5090427;28;20231;-73
2022/01/02 02:02:45;;;;;;;3.70;2.00;;;;;;;10.57;100.00;100837.44;5090401;28;20201;-73
2022/01/02 02:05:11;;;;;;;3.40;2.60;;;;;;;10.57;100.00;100840.16;5090039;28;20180;-74
2022/01/02 02:07:40;;;;;;;2.83;2.20;;;;;;;10.58;100.00;100835.50;5090370;28;20178;-73
2022/01/02 02:10:28;;;;;;;1.90;1.60;;;;;;;10.58;100.00;100825.38;5090478;28;20239;-73
2022/01/02 02:12:56;;;;;;;2.70;1.63;;;;;;;10.56;100.00;100841.28;5090291;28;20637;-74
2022/01/02 02:15:22;;;;;;;0.73;0.40;;;;;;;10.59;100.00;100851.59;5090140;28;20223;-73
2022/01/02 02:17:50;;;;;;;2.50;2.30;;;;;;;10.66;100.00;100875.78;5090070;28;20205;-73
2022/01/02 02:20:30;;;;;;;1.80;1.67;;;;;;;10.66;100.00;100865.66;5090252;28;20223;-73
2022/01/02 02:22:58;;;;;;;1.97;1.50;;;;;;;10.67;100.00;100867.28;5088889;28;20225;-73
2022/01/02 02:25:30;;;;;;;3.13;2.03;;;;;;;10.65;100.00;100861.31;5089960;28;20174;-74
2022/01/02 02:28:17;;;;;;;2.30;2.10;;;;;;;10.61;100.00;100857.56;5090009;28;20188;-74
2022/01/02 02:30:46;;;;;;;3.20;2.90;;;;;;;10.57;100.00;100859.28;5090210;28;20178;-73
2022/01/02 02:33:13;;;;;;;1.67;1.43;;;;;;;10.56;100.00;100849.47;5090072;28;20227;-74
2022/01/02 02:35:40;;;;;;;4.27;2.53;;;;;;;10.62;100.00;100841.97;5089859;28;20174;-73
2022/01/02 02:38:07;;;;;;;3.03;2.70;;;;;;;10.63;100.00;100838.13;5088758;28;20170;-73
2022/01/02 02:40:34;;;;;;;1.97;1.77;;;;;;;10.63;100.00;100833.47;5089961;28;20219;-73
2022/01/02 02:43:24;;;;;;;3.33;2.93;;;;;;;10.55;100.00;100825.97;5089955;28;20473;-74
2022/01/02 02:51:27;;;;;;;3.53;2.90;;;;;;;10.43;100.00;100833.88;5090066;28;20185;-74
2022/01/02 02:53:53;;;;;;;3.20;2.83;;;;;;;10.51;100.00;100846.81;5089971;28;20201;-74
2022/01/02 02:56:25;;;;;;;3.20;2.80;;;;;;;10.55;100.00;100875.13;5088644;28;20542;-73
2022/01/02 02:58:57;;;;;;;4.70;3.47;;;;;;;10.58;100.00;100874.56;5089866;28;20166;-73
2022/01/02 03:01:26;;;;;;;3.43;3.13;;;;;;;10.57;100.00;100872.94;5089748;28;20220;-73
2022/01/02 03:03:53;;;;;;;3.00;2.77;;;;;;;10.58;100.00;100879.22;5089938;28;20646;-74
2022/01/02 03:06:19;;;;;;;4.90;3.70;;;;;;;10.59;100.00;100867.19;5092935;28;20177;-73
2022/01/02 03:08:45;;;;;;;4.67;3.13;;;;;;;10.54;100.00;100856.31;5092102;28;20170;-74
2022/01/02 03:11:15;;;;;;;4.60;3.97;;;;;;;10.38;100.00;100844.84;5093554;28;20174;-73
2022/01/02 03:13:40;;;;;;;4.87;4.47;;;;;;;10.24;100.00;100828.44;5093472;28;20177;-73
2022/01/02 03:16:06;;;;;;;4.97;4.20;;;;;;;10.20;100.00;100832.84;5093153;28;20174;-73
2022/01/02 03:18:31;;;;;;;4.37;3.97;;;;;;;10.01;100.00;100826.63;5093602;28;20173;-74
2022/01/02 03:20:57;;;;;;;3.97;3.57;;;;;;;9.99;100.00;100826.94;5093104;28;20177;-73
2022/01/02 03:23:22;;;;;;;3.70;3.30;;;;;;;10.10;100.00;100825.63;5093255;28;20706;-73
2022/01/02 03:25:47;;;;;;;3.67;3.27;;;;;;;10.21;100.00;100820.84;5092940;28;20181;-74
2022/01/02 03:28:13;;;;;;;3.83;3.40;;;;;;;10.39;100.00;100800.03;5093116;28;20209;-74
2022/01/02 03:30:38;;;;;;;2.03;1.83;;;;;;;10.45;100.00;100806.25;5092986;28;20169;-74
2022/01/02 03:33:03;;;;;;;2.53;2.33;;;;;;;10.54;100.00;100793.47;5093155;28;20178;-73
2022/01/02 03:35:29;;;;;;;4.23;3.77;;;;;;;10.51;100.00;100783.97;5093239;28;20180;-73
2022/01/02 03:37:55;;;;;;;4.57;3.97;;;;;;;10.52;100.00;100777.41;5092976;28;20181;-73
2022/01/02 03:40:20;;;;;;;4.13;3.57;;;;;;;10.43;100.00;100779.22;5092925;28;20178;-73
2022/01/02 03:42:45;;;;;;;3.33;2.87;;;;;;;10.65;100.00;100782.06;5092947;28;20665;-73
2022/01/02 03:45:11;;;;;;;3.67;3.23;;;;;;;10.61;100.00;100782.97;5092653;28;20204;-73
2022/01/02 03:47:37;;;;;;;4.57;3.57;;;;;;;10.68;100.00;100783.38;5093097;28;20252;-73
2022/01/02 03:50:04;;;;;;;4.20;2.47;;;;;;;10.66;100.00;100778.22;5092902;28;20189;-73
2022/01/02 03:52:30;;;;;;;3.53;3.23;;;;;;;10.68;100.00;100767.78;5092672;28;20170;-73
2022/01/02 03:54:56;;;;;;;3.30;3.00;;;;;;;10.78;100.00;100785.09;5092273;28;20217;-73
2022/01/02 03:57:22;;;;;;;4.07;2.83;;;;;;;10.80;100.00;100788.34;5092596;28;20170;-73
2022/01/02 03:59:47;;;;;;;4.10;3.70;;;;;;;10.85;99.76;100769.94;5091125;28;20629;-73
2022/01/02 04:02:13;;;;;;;1.30;1.20;;;;;;;10.85;99.73;100763.63;5092563;28;20563;-73
2022/01/02 04:04:38;;;;;;;1.43;0.93;;;;;;;10.92;98.60;100762.09;5092395;28;20630;-73
2022/01/02 04:07:04;;;;;;;4.13;3.60;;;;;;;10.88;98.48;100736.50;5092242;28;20645;-73
2022/01/02 04:09:30;;;;;;;2.70;2.47;;;;;;;10.92;98.34;100721.09;5092332;28;20173;-73
2022/01/02 04:11:55;;;;;;;5.40;2.40;;;;;;;10.95;98.46;100714.22;5092309;28;20185;-73
2022/01/02 04:14:21;;;;;;;4.27;3.47;;;;;;;10.92;98.85;100703.91;5092285;28;20178;-73
2022/01/02 04:16:46;;;;;;;2.37;1.90;;;;;;;10.95;98.02;100706.00;5090774;28;20626;-73
2022/01/02 04:19:12;;;;;;;3.40;3.10;;;;;;;10.98;97.30;100708.94;5092390;28;20173;-73
2022/01/02 04:21:37;;;;;;;3.30;2.50;;;;;;;10.98;97.68;100697.19;5091937;28;20213;-73
2022/01/02 04:24:03;;;;;;;4.03;3.63;;;;;;;11.01;97.59;100694.66;5092095;28;20180;-73
2022/01/02 04:26:28;;;;;;;0.70;0.57;;;;;;;11.02;97.12;100706.41;5091761;28;20173;-73
2022/01/02 04:28:53;;;;;;;2.47;1.80;;;;;;;11.09;96.48;100703.25;5091814;28;20178;-73
2022/01/02 04:31:19;;;;;;;1.70;1.57;;;;;;;11.11;95.75;100714.69;5091942;28;20233;-73
2022/01/02 04:33:44;;;;;;;3.03;2.60;;;;;;;11.12;95.65;100702.63;5091936;28;20212;-73
2022/01/02 04:36:09;;;;;;;1.37;1.27;;;;;;;11.14;96.25;100695.75;5091572;28;20184;-73
2022/01/02 04:38:36;;;;;;;2.67;1.50;;;;;;;11.16;96.07;100688.03;5092069;28;20182;-73
2022/01/02 04:41:02;;;;;;;1.67;1.37;;;;;;;11.14;95.80;100684.81;5091725;28;20174;-73
2022/01/02 04:43:28;;;;;;;2.50;2.30;;;;;;;11.14;96.37;100683.97;5091602;28;20189;-73
2022/01/02 04:45:53;;;;;;;3.63;2.73;;;;;;;11.10;96.72;100686.53;5091458;28;20165;-73
2022/01/02 04:48:18;;;;;;;6.80;2.87;;;;;;;11.09;96.54;100684.91;5090408;28;20177;-73
2022/01/02 04:50:44;;;;;;;2.17;2.03;;;;;;;11.03;96.91;100695.16;5091779;28;20166;-73
2022/01/02 04:53:09;;;;;;;3.13;2.60;;;;;;;11.04;97.22;100695.97;5091804;28;20177;-73
2022/01/02 04:55:35;;;;;;;1.53;1.20;;;;;;;11.01;96.74;100691.94;5091249;28;20177;-73
2022/01/02 04:58:01;;;;;;;2.13;1.93;;;;;;;11.04;96.96;100695.97;5091553;28;20201;-73
2022/01/02 05:00:26;;;;;;;1.60;1.50;;;;;;;11.01;97.07;100694.66;5091970;28;20197;-73
2022/01/02 05:02:52;;;;;;;3.07;2.37;;;;;;;11.06;96.57;100692.94;5091277;28;20205;-73
2022/01/02 05:05:18;;;;;;;1.37;1.27;;;;;;;11.06;96.94;100685.53;5091739;28;20202;-73
2022/01/02 05:07:44;;;;;;;7.20;3.37;;;;;;;11.05;97.31;100686.66;5091746;28;20198;-73
2022/01/02 05:10:09;;;;;;;2.63;2.20;;;;;;;11.03;97.35;100680.69;5091249;28;20565;-73
2022/01/02 05:12:34;;;;;;;8.03;1.90;;;;;;;11.12;97.39;100691.69;5091303;28;20170;-73
2022/01/02 05:15:01;;;;;;;2.40;2.17;;;;;;;11.10;97.63;100683.78;5090834;28;20846;-73
2022/01/02 05:17:26;;;;;;;1.93;1.83;;;;;;;11.10;98.64;100692.00;5091123;28;20169;-73
2022/01/02 05:19:52;;;;;;;19.07;1.57;;;;;;;11.07;99.26;100681.69;5091043;28;20694;-73
2022/01/02 05:22:17;;;;;;;5.83;2.40;;;;;;;11.08;99.38;100688.75;5089514;28;20205;-73
2022/01/02 05:24:43;;;;;;;3.93;2.47;;;;;;;11.02;100.00;100671.69;5090708;28;20170;-74
2022/01/02 05:27:08;;;;;;;3.47;2.83;;;;;;;11.00;100.00;100673.09;5090465;28;20162;-74
2022/01/02 05:29:33;;;;;;;3.03;2.73;;;;;;;11.05;99.45;100678.44;5089217;28;20185;-73
2022/01/02 05:31:59;;;;;;;3.40;2.87;;;;;;;11.05;99.50;100664.78;5091065;28;20644;-73
2022/01/02 05:34:24;;;;;;;7.73;1.80;;;;;;;11.07;100.00;100665.28;5090727;28;20689;-74
2022/01/02 05:36:50;;;;;;;3.47;2.70;;;;;;;11.10;100.00;100652.91;5090564;28;20170;-73
2022/01/02 05:39:19;;;;;;;4.47;1.60;;;;;;;11.22;99.38;100648.50;5090524;28;20698;-73
2022/01/02 05:41:46;;;;;;;1.10;1.00;;;;;;;11.23;99.31;100650.13;5090693;28;20720;-73
2022/01/02 05:44:11;;;;;;;3.50;2.37;;;;;;;11.23;99.56;100641.09;5090578;28;20169;-73
2022/01/02 05:46:37;;;;;;;1.13;1.03;;;;;;;11.29;100.00;100637.16;5090492;28;20162;-73
2022/01/02 05:49:03;;;;;;;1.50;1.40;;;;;;;11.40;99.28;100634.94;5090560;28;20169;-73
2022/01/02 05:51:28;;;;;;;1.17;1.07;;;;;;;11.44;99.26;100631.28;5090678;28;20178;-73
2022/01/02 05:53:53;;;;;;;6.13;1.93;;;;;;;11.57;98.36;100648.72;5090568;28;20169;-73
2022/01/02 05:56:19;;;;;;;1.10;1.07;;;;;;;11.62;98.16;100629.47;5089955;28;20226;-73
2022/01/02 05:58:44;;;;;;;1.60;1.27;;;;;;;11.59;98.49;100632.81;5090171;28;20264;-73
2022/01/02 06:01:09;;;;;;;2.23;2.03;;;;;;;11.59;98.78;100630.91;5090516;28;20170;-73
2022/01/02 06:03:35;;;;;;;5.30;1.37;;;;;;;11.61;98.38;100625.09;5090339;28;20231;-73
2022/01/02 06:06:01;;;;;;;5.37;1.97;;;;;;;11.59;98.66;100633.63;5090188;28;20201;-73
2022/01/02 06:08:27;;;;;;;2.87;1.40;;;;;;;11.56;98.67;100630.69;5090738;28;20641;-74
2022/01/02 06:10:52;;;;;;;1.40;1.00;;;;;;;11.58;99.01;100632.03;5090325;28;20195;-73
2022/01/02 06:13:17;;;;;;;3.67;2.27;;;;;;;11.58;99.14;100634.75;5089903;28;20181;-73
2022/01/02 06:15:43;;;;;;;1.57;1.30;;;;;;;11.60;100.00;100634.44;5090121;28;20541;-73
2022/01/02 06:18:08;;;;;;;3.57;2.20;;;;;;;11.60;99.62;100626.22;5090274;28;20543;-74
2022/01/02 06:20:34;;;;;;;1.63;1.30;;;;;;;11.60;99.58;100615.28;5090233;28;20634;-73
2022/01/02 06:23:00;;;;;;;2.03;1.83;;;;;;;11.57;100.00;100626.84;5088762;28;20693;-73
2022/01/02 06:25:25;;;;;;;1.33;1.10;;;;;;;11.57;100.00;100621.34;5090037;28;20688;-74
2022/01/02 06:27:50;;;;;;;3.73;2.13;;;;;;;11.49;100.00;100619.41;5090067;28;20691;-74
2022/01/02 06:30:16;;;;;;;3.67;1.10;;;;;;;11.48;100.00;100623.25;5090455;28;20189;-73
2022/01/02 06:32:42;;;;;;;6.67;2.10;;;;;;;11.47;100.00;100624.38;5090198;28;20436;-73
2022/01/02 06:35:07;;;;;;;4.23;0.97;;;;;;;11.48;100.00;100617.78;5090097;28;20509;-74
2022/01/02 06:37:33;;;;;;;2.03;1.67;;;;;;;11.44;100.00;100617.59;5090212;28;20178;-74
2022/01/02 06:39:58;;;;;;;2.73;2.10;;;;;;;11.40;100.00;100608.38;5091258;28;20799;-74
2022/01/02 06:42:23;;;;;;;1.13;0.97;;;;;;;11.40;100.00;100619.34;5093972;28;20197;-74
2022/01/02 06:44:49;;;;;;;1.73;1.27;;;;;;;11.39;100.00;100612.25;5093959;28;20531;-74
2022/01/02 06:47:15;;;;;;;2.67;1.50;;;;;;;11.39;100.00;100611.44;5094021;28;20178;-74
2022/01/02 06:49:41;;;;;;;2.33;1.17;;;;;;;11.36;100.00;100603.88;5093865;28;20177;-74
2022/01/02 06:52:06;;;;;;;2.73;2.27;;;;;;;11.29;100.00;100602.41;5093942;28;20178;-74
2022/01/02 06:54:32;;;;;;;4.27;2.30;;;;;;;11.28;100.00;100603.50;5093706;28;20219;-73
2022/01/02 06:56:57;;;;;;;0.77;0.67;;;;;;;11.32;100.00;100604.50;5093465;28;20226;-74
2022/01/02 06:59:23;;;;;;;1.60;1.50;;;;;;;11.33;100.00;100599.84;5093755;28;20174;-73
2022/01/02 07:01:48;;;;;;;1.93;1.33;;;;;;;11.30;100.00;100595.81;5093592;28;20331;-74
2022/01/02 07:04:14;;;;;;;2.20;1.53;;;;;;;11.31;100.00;100567.31;5094031;28;20250;-74
2022/01/02 07:06:39;;;;;;;4.13;1.67;;;;;;;11.34;100.00;100579.56;5093242;28;20307;-74
2022/01/02 07:09:05;;;;;;;1.30;1.00;;;;;;;11.41;100.00;100582.66;5093535;28;20218;-73
2022/01/02 07:11:30;;;;;;;0.90;0.90;;;;;;;11.43;100.00;100574.97;5093445;28;20575;-73
2022/01/02 07:13:55;;;;;;;0.70;0.70;;;;;;;11.47;100.00;100578.69;5093620;28;20289;-73
2022/01/02 07:16:21;;;;;;;2.70;1.90;;;;;;;11.47;100.00;100551.31;5093397;28;20181;-74
2022/01/02 07:18:46;;;;;;;2.03;1.10;;;;;;;11.46;100.00;100574.31;5093376;28;20280;-73
2022/01/02 07:21:12;;;;;;;2.67;2.47;;;;;;;11.56;100.00;100562.28;5093184;28;20189;-73
2022/01/02 07:23:37;;;;;;;1.57;1.47;;;;;;;11.61;100.00;100564.91;5093320;28;20181;-73
2022/01/02 07:26:02;;;;;;;3.33;1.10;;;;;;;11.65;100.00;100563.13;5092835;28;20521;-73
2022/01/02 07:28:29;;;;;;;1.37;0.90;;;;;;;11.69;100.00;100564.13;5093145;28;20255;-73
2022/01/02 07:30:55;;;;;;;0.60;0.50;;;;;;;11.75;100.00;100557.41;5093143;28;20257;-73
2022/01/02 07:33:20;;;;;;;6.20;2.37;;;;;;;11.81;100.00;100561.63;5093261;28;20343;-73
2022/01/02 07:35:45;;;;;;;0.77;0.60;;;;;;;11.85;100.00;100561.78;5092786;28;20185;-74
2022/01/02 07:38:11;;;;;;;3.13;1.03;;;;;;;11.85;100.00;100567.25;5092969;28;20209;-73
2022/01/02 07:40:36;;;;;;;3.85;2.05;;;;;;;11.86;100.00;100563.41;5092477;28;20424;-74
2022/01/02 07:43:01;;;;;;;0.70;0.70;;;;;;;11.87;100.00;100538.47;5092892;28;20201;-74
2022/01/02 07:45:27;;;;;;;4.10;1.63;;;;;;;11.83;100.00;100561.31;5092700;28;20200;-74
2022/01/02 07:47:52;;;;;;;0.93;0.87;;;;;;;11.85;100.00;100557.13;5091443;28;20544;-73
2022/01/02 07:50:18;;;;;;;1.20;1.20;;;;;;;11.86;100.00;100552.44;5092470;28;20245;-74
2022/01/02 07:52:44;;;;;;;1.80;0.47;;;;;;;11.90;100.00;100561.66;5091464;28;20174;-74
2022/01/02 07:55:09;;;;;;;2.13;1.20;;;;;;;11.93;100.00;100549.25;5092357;28;20630;-74
2022/01/02 07:57:35;;;;;;;2.30;1.57;;;;;;;11.87;100.00;100543.94;5092527;28;20178;-74
2022/01/02 08:00:01;;;;;;;0.60;0.60;;;;;;;11.89;100.00;100535.41;5092650;28;20586;-74
2022/01/02 08:02:26;;;;;;;0.37;0.37;;;;;;;11.95;100.00;100539.59;5092464;28;20685;-74
2022/01/02 08:04:51;;;;;;;1.80;1.53;;;;;;;12.02;100.00;100525.47;5089234;28;20181;-73
2022/01/02 08:07:17;;;;;;;0.83;0.83;;;;;;;12.02;100.00;100519.97;5085763;28;20197;-74
2022/01/02 08:09:42;;;;;;;0.70;0.70;;;;;;;11.99;100.00;100517.84;5090394;28;20690;-73
2022/01/02 08:12:07;;;;;;;2.70;1.50;;;;;;;11.96;100.00;100502.88;5092712;28;20196;-73
2022/01/02 08:14:33;;;;;;;1.47;1.37;;;;;;;11.96;100.00;100497.41;5092524;28;20688;-74
2022/01/02 08:16:58;;;;;;;4.03;1.87;;;;;;;11.91;100.00;100492.91;5092526;28;20209;-74
2022/01/02 08:19:23;;;;;;;5.80;1.47;;;;;;;11.91;100.00;100505.78;5092577;28;20169;-74
2022/01/02 08:21:49;;;;;;;6.57;1.70;;;;;;;11.88;100.00;100496.28;5092365;28;20289;-74
2022/01/02 08:24:14;;;;;;;3.63;1.37;;;;;;;11.95;100.00;100503.19;5092656;28;20170;-73
2022/01/02 08:26:40;;;;;;;1.43;0.70;;;;;;;12.00;100.00;100501.09;5092621;28;20220;-74
2022/01/02 08:29:05;;;;;;;1.57;1.20;;;;;;;12.01;100.00;100496.47;5092910;28;20174;-74
2022/01/02 08:31:31;;;;;;;1.63;1.37;;;;;;;12.02;100.00;100490.66;5092674;28;20185;-74
2022/01/02 08:33:57;;;;;;;1.00;0.90;;;;;;;12.02;100.00;100492.59;5092703;28;20189;-73
2022/01/02 08:36:23;;;;;;;2.10;1.70;;;;;;;12.02;100.00;100484.38;5092638;28;20166;-74
2022/01/02 08:38:49;;;;;;;1.33;1.23;;;;;;;11.99;100.00;100479.53;5092332;28;20190;-74
2022/01/02 08:41:15;;;;;;;1.87;0.57;;;;;;;11.99;100.00;100465.84;5092374;28;20653;-74
2022/01/02 08:43:41;;;;;;;0.63;0.40;;;;;;;11.97;100.00;100468.09;5092104;28;20257;-73
2022/01/02 08:46:06;;;;;;;0.87;0.80;;;;;;;11.95;100.00;100445.72;5092074;28;20701;-73
2022/01/02 08:48:32;;;;;;;1.47;1.37;;;;;;;11.89;100.00;100440.41;5092212;28;20180;-74
2022/01/02 08:50:57;;;;;;;1.60;1.50;;;;;;;11.86;100.00;100437.47;5092138;28;20178;-74
2022/01/02 08:53:22;;;;;;;1.93;1.40;;;;;;;11.85;100.00;100424.91;5092129;28;20213;-74
2022/01/02 08:55:48;;;;;;;1.90;1.07;;;;;;;11.84;100.00;100394.00;5092284;28;20178;-74
2022/01/02 08:58:13;;;;;;;2.17;1.70;;;;;;;11.81;100.00;100385.63;5091910;28;20630;-73
2022/01/02 09:00:39;;;;;;;2.50;1.87;;;;;;;11.82;100.00;100392.72;5091981;28;20185;-73
2022/01/02 09:03:06;;;;;;;3.80;2.37;;;;;;;11.75;100.00;100386.88;5091218;28;20288;-73
2022/01/02 09:05:31;;;;;;;3.20;2.33;;;;;;;11.70;100.00;100385.09;5091812;28;20170;-73
2022/01/02 09:07:57;;;;;;;3.73;2.17;;;;;;;11.60;100.00;100388.16;5089952;28;20261;-73
2022/01/02 09:10:22;;;;;;;3.73;2.60;;;;;;;11.50;100.00;100385.72;5091705;28;20197;-74
2022/01/02 09:12:48;;;;;;;2.20;1.87;;;;;;;11.38;100.00;100380.84;5091869;28;20178;-73
2022/01/02 09:15:14;;;;;;;2.53;2.07;;;;;;;11.27;100.00;100377.59;5091636;28;20186;-74
2022/01/02 09:17:39;;;;;;;3.60;2.67;;;;;;;11.17;100.00;100363.44;5090601;28;20182;-74
2022/01/02 09:20:06;;;;;;;3.40;3.10;;;;;;;11.10;100.00;100366.63;5091581;28;20222;-74
2022/01/02 09:22:32;;;;;;;3.27;2.97;;;;;;;11.07;100.00;100367.25;5091803;28;20211;-73
2022/01/02 09:24:58;;;;;;;3.93;2.87;;;;;;;11.03;100.00;100360.81;5091213;28;20552;-74
2022/01/02 09:27:23;;;;;;;2.03;1.80;;;;;;;11.03;100.00;100366.28;5091820;28;20223;-73
2022/01/02 09:29:48;;;;;;;3.47;3.10;;;;;;;11.00;100.00;100361.44;5091759;28;20173;-74
2022/01/02 09:32:14;;;;;;;4.03;2.33;;;;;;;10.97;100.00;100362.06;5091835;28;20177;-74
2022/01/02 09:34:39;;;;;;;4.90;2.63;;;;;;;10.97;100.00;100367.53;5091333;28;20668;-73
2022/01/02 09:37:05;;;;;;;4.90;3.10;;;;;;;10.96;100.00;100369.44;5091674;28;20178;-74
2022/01/02 09:39:31;;;;;;;1.67;1.57;;;;;;;10.99;100.00;100381.69;5091214;28;20584;-74
2022/01/02 09:41:56;;;;;;;3.20;2.90;;;;;;;11.01;100.00;100382.19;5091295;28;20198;-75
2022/01/02 09:44:22;;;;;;;5.67;3.90;;;;;;;10.98;100.00;100369.94;5091246;28;20181;-74
2022/01/02 09:46:52;;;;;;;1.23;1.10;;;;;;;10.96;100.00;100376.84;5091407;28;20745;-73
2022/01/02 09:49:19;;;;;;;6.23;4.90;;;;;;;10.88;100.00;100372.16;5091598;28;20610;-73
2022/01/02 09:51:45;;;;;;;4.13;3.83;;;;;;;10.91;100.00;100366.06;5090126;28;20180;-73
2022/01/02 09:54:10;;;;;;;6.23;3.53;;;;;;;10.90;100.00;100361.72;5091431;28;20177;-73
2022/01/02 09:56:36;;;;;;;5.83;4.63;;;;;;;10.82;100.00;100355.09;5091451;28;20185;-73
2022/01/02 09:59:02;;;;;;;3.03;2.77;;;;;;;10.85;100.00;100340.81;5091545;28;20696;-74
2022/01/02 10:01:29;;;;;;;8.67;3.47;;;;;;;10.84;100.00;100324.69;5091084;28;20187;-73
2022/01/02 10:03:57;;;;;;;4.53;3.83;;;;;;;10.80;100.00;100312.81;5091034;28;20173;-74
2022/01/02 10:06:41;;;;;;;4.93;4.50;;;;;;;10.75;100.00;100311.03;5090767;28;20178;-75
2022/01/02 10:09:14;;;;;;;4.37;3.93;;;;;;;10.77;100.00;100273.25;5090797;28;20181;-73
2022/01/02 10:11:40;;;;;;;2.80;2.57;;;;;;;10.80;100.00;100278.06;5090557;28;20656;-73
2022/01/02 10:14:09;;;;;;;12.07;3.80;;;;;;;10.80;100.00;100256.22;5092091;28;20169;-73
2022/01/02 10:16:36;;;;;;;4.80;4.20;;;;;;;10.86;100.00;100276.03;5095062;28;20201;-74
2022/01/02 10:19:20;;;;;;;2.07;1.97;;;;;;;10.98;100.00;100273.47;5094812;28;20169;-74
2022/01/02 10:22:06;;;;;;;4.47;3.77;;;;;;;11.01;100.00;100237.31;5094741;28;20293;-74
2022/01/02 10:24:37;;;;;;;1.97;1.73;;;;;;;11.07;100.00;100236.03;5094865;28;20252;-73
2022/01/02 10:27:18;;;;;;;4.83;1.43;;;;;;;11.14;100.00;100241.84;5094914;28;20609;-74
2022/01/02 10:29:54;;;;;;;2.23;1.90;;;;;;;11.16;100.00;100234.13;5094738;28;20173;-73
2022/01/02 10:32:38;;;;;;;4.00;3.60;;;;;;;11.13;100.00;100240.19;5095118;28;20193;-73
2022/01/02 10:35:15;;;;;;;5.53;3.50;;;;;;;11.19;100.00;100232.66;5093155;28;20653;-73
2022/01/02 10:37:53;;;;;;;21.83;1.93;;;;;;;11.22;100.00;100216.41;5094634;28;20174;-74
2022/01/02 10:40:25;;;;;;;2.30;1.87;;;;;;;11.27;100.00;100205.31;5094567;28;20269;-74
2022/01/02 10:42:50;;;;;;;3.70;3.30;;;;;;;11.31;100.00;100209.03;5094689;28;20205;-74
2022/01/02 10:45:31;;;;;;;3.40;3.10;;;;;;;11.30;100.00;100195.69;5094253;28;20180;-74
2022/01/02 10:47:56;;;;;;;3.50;2.67;;;;;;;11.36;100.00;100188.09;5093898;28;20661;-74
2022/01/02 10:50:22;;;;;;;3.70;2.93;;;;;;;11.40;100.00;100175.38;5093960;28;20207;-75
2022/01/02 10:52:47;;;;;;;4.10;3.33;;;;;;;11.38;100.00;100180.38;5093884;28;20178;-75
2022/01/02 10:55:15;;;;;;;3.07;2.63;;;;;;;11.51;100.00;100165.72;5093620;28;20645;-75
2022/01/02 10:57:49;;;;;;;5.07;3.43;;;;;;;11.46;100.00;100161.22;5093549;28;20180;-75
2022/01/02 11:00:16;;;;;;;3.07;2.77;;;;;;;11.58;100.00;100172.31;5093646;28;20170;-74
2022/01/02 11:02:44;;;;;;;2.80;2.60;;;;;;;11.62;100.00;100158.78;5093553;28;20213;-75
2022/01/02 11:05:11;;;;;;;1.27;1.17;;;;;;;11.61;100.00;100141.56;5093342;28;20258;-75
2022/01/02 11:07:45;;;;;;;2.20;2.00;;;;;;;11.69;100.00;100131.72;5093300;28;20178;-74
2022/01/02 11:10:13;;;;;;;0.77;0.77;;;;;;;11.81;100.00;100136.53;5093890;28;20169;-74
2022/01/02 11:12:41;;;;;;;3.23;1.40;;;;;;;11.98;100.00;100122.78;5091786;28;20178;-74
2022/01/02 11:15:09;;;;;;;2.33;1.70;;;;;;;12.13;97.63;100116.75;5093098;28;20181;-74
2022/01/02 11:17:35;;;;;;;1.33;0.63;;;;;;;12.36;94.08;100105.53;5092748;28;20166;-74
2022/01/02 11:20:09;;;;;;;4.67;1.37;;;;;;;12.44;92.54;100108.22;5093195;28;20177;-74
2022/01/02 11:22:48;;;;;;;2.50;1.07;;;;;;;12.54;90.38;100095.25;5093165;28;20213;-74
2022/01/02 11:25:22;;;;;;;0.93;0.87;;;;;;;12.60;89.57;100088.47;5092630;28;20169;-75